Hekiryumaru — JH3274 — position and weather

sailwx.info

Track history (hours):
 
Tides and Currents Weather Stations Pressure Air Temp Water Temp Dewpoint Dewpoint Depression Visibility Wind Speed Wind Dir Waves Ship Positions

Hekiryumaru

Last reported at 2018-Feb-23 02:28 UTC. Time now 2018-Feb-23 02:39 UTC.
Position N 35°03' E 136°53'.

Length 115 m; draft 5 m.

Type: Cargo ship. MMSI: 431200271.

Date/timePositionNaut miles runAvg speedWind from/ knotsBaromVisibWave heightAir tempDewpointWater temp
2018-Feb-23 02:28N 35°03' E 136°53'0 0.0
2018-Feb-23 01:58N 35°03' E 136°53'0 0.0
2018-Feb-23 01:25N 35°03' E 136°53'2 5.5
2018-Feb-23 01:00N 35°02' E 136°51'612.2
2018-Feb-23 00:30N 34°57' E 136°46'0 0.9
2018-Feb-23 00:00N 34°57' E 136°45'0 0.0
2018-Feb-22 23:30N 34°57' E 136°45'0 0.0
2018-Feb-22 23:00N 34°57' E 136°45'0 0.0
2018-Feb-22 22:30N 34°57' E 136°45'0 0.0
2018-Feb-22 22:00N 34°57' E 136°45'0 0.1
2018-Feb-22 21:27N 34°57' E 136°45'511.0
2018-Feb-22 21:00N 34°52' E 136°47'713.7
2018-Feb-22 20:30N 34°45' E 136°49'106 8.9
2018-Feb-22 08:35N 33°53' E 134°58'114.6
2018-Feb-22 08:30N 33°53' E 134°57'1214.1
2018-Feb-22 07:41N 34°03' E 134°49'1615.0
2018-Feb-22 06:37N 34°16' E 134°37'413.8
2018-Feb-22 06:18N 34°18' E 134°33'514.1
2018-Feb-22 05:59N 34°19' E 134°27'8 0.3
2018-Feb-21 02:30N 34°23' E 134°19'815.2
2018-Feb-21 02:00N 34°20' E 134°27'1314.8
2018-Feb-21 01:09N 34°13' E 134°40'515.8
2018-Feb-21 00:49N 34°09' E 134°44'514.9
2018-Feb-21 00:30N 34°05' E 134°48'1015.0
2018-Feb-20 23:50N 33°57' E 134°54'515.2
2018-Feb-20 23:30N 33°53' E 134°58'104 9.6
2018-Feb-20 12:39N 34°40' E 136°50'215.3
2018-Feb-20 12:30N 34°42' E 136°48'714.9
2018-Feb-20 12:00N 34°49' E 136°46'714.8
2018-Feb-20 11:30N 34°57' E 136°47'713.8
2018-Feb-20 11:00N 35°02' E 136°52'1 2.7
2018-Feb-20 10:30N 35°03' E 136°53'0 0.0
2018-Feb-20 09:59N 35°03' E 136°53'0 0.0
2018-Feb-20 09:29N 35°03' E 136°53'0 0.0
2018-Feb-20 08:56N 35°03' E 136°53'0 0.0
2018-Feb-20 08:29N 35°03' E 136°53'0 0.0
2018-Feb-20 07:59N 35°03' E 136°53'0 0.0
2018-Feb-20 07:29N 35°03' E 136°53'0 0.0
2018-Feb-20 06:59N 35°03' E 136°53'0 0.0
2018-Feb-20 06:29N 35°03' E 136°53'0 0.0
2018-Feb-20 05:59N 35°03' E 136°53'0 0.0
2018-Feb-20 05:29N 35°03' E 136°53'0 0.0
2018-Feb-20 04:59N 35°03' E 136°53'0 0.0
2018-Feb-20 04:29N 35°03' E 136°53'0 0.9
2018-Feb-20 04:00N 35°03' E 136°53'510.3
2018-Feb-20 03:30N 34°59' E 136°49'612.5
2018-Feb-20 03:00N 34°53' E 136°47'713.0
2018-Feb-20 02:30N 34°46' E 136°48'10212.5
2018-Feb-19 18:17N 34°33' E 138°52'413.0
2018-Feb-19 17:57N 34°33' E 138°57'913.1
2018-Feb-19 17:15N 34°39' E 139°05'313.1
2018-Feb-19 17:00N 34°41' E 139°08'3113.6
2018-Feb-19 14:44N 35°02' E 139°36'314.1
2018-Feb-19 14:30N 35°04' E 139°38'714.2
2018-Feb-19 14:00N 35°10' E 139°44'612.7
2018-Feb-19 13:30N 35°16' E 139°46'612.7
2018-Feb-19 13:00N 35°21' E 139°42'612.4
2018-Feb-19 12:30N 35°27' E 139°43'0 1.0
2018-Feb-19 11:59N 35°28' E 139°43'0 0.0
2018-Feb-19 11:29N 35°28' E 139°43'0 0.0
2018-Feb-19 10:56N 35°28' E 139°43'0 0.0
2018-Feb-19 10:29N 35°28' E 139°43'0 0.1
2018-Feb-19 09:59N 35°28' E 139°43'0 0.1
2018-Feb-19 09:26N 35°28' E 139°43'0 0.0
2018-Feb-19 08:59N 35°28' E 139°43'0 0.0
2018-Feb-19 08:17N 35°28' E 139°43'0 0.0
2018-Feb-19 07:56N 35°28' E 139°43'0 0.0
2018-Feb-19 07:29N 35°28' E 139°43'0 0.0
2018-Feb-19 06:59N 35°28' E 139°43'0 0.0
2018-Feb-19 06:29N 35°28' E 139°43'0 0.0
2018-Feb-19 05:59N 35°28' E 139°43'0 0.1
2018-Feb-19 05:29N 35°28' E 139°43'3 6.7
2018-Feb-19 05:00N 35°28' E 139°47'1112.5
2018-Feb-19 04:09N 35°35' E 139°56'1 7.4
2018-Feb-19 03:57N 35°36' E 139°57'0 0.1
2018-Feb-19 03:20N 35°36' E 139°57'1 0.2
2018-Feb-18 21:06N 35°37' E 139°58'1 0.3
2018-Feb-18 17:24N 35°36' E 139°57'0 0.0
2018-Feb-18 17:00N 35°36' E 139°57'0 0.1
2018-Feb-18 16:29N 35°36' E 139°57'5 9.8
2018-Feb-18 16:00N 35°32' E 139°54'713.9
2018-Feb-18 15:30N 35°27' E 139°49'612.5
2018-Feb-18 15:00N 35°22' E 139°45'611.5
2018-Feb-18 14:31N 35°16' E 139°47'612.3
2018-Feb-18 14:00N 35°10' E 139°46'1114.1
2018-Feb-18 13:15N 35°01' E 139°39'4014.8
2018-Feb-18 10:34N 34°36' E 139°01'414.1
2018-Feb-18 10:15N 34°33' E 138°57'19912.8
2018-Feb-17 18:37N 33°50' E 135°02'615.3
2018-Feb-17 18:14N 33°55' E 134°57'314.9
2018-Feb-17 18:00N 33°58' E 134°55'815.3
2018-Feb-17 17:30N 34°04' E 134°49'1716.1
2018-Feb-17 16:26N 34°17' E 134°36'614.9
2018-Feb-17 16:00N 34°19' E 134°28'7 0.4
2018-Feb-16 23:16N 34°23' E 134°21'414.4
2018-Feb-16 22:59N 34°21' E 134°25'714.5
2018-Feb-16 22:30N 34°18' E 134°33'815.0
2018-Feb-16 21:59N 34°13' E 134°40'715.1
2018-Feb-16 21:29N 34°07' E 134°46'814.9
2018-Feb-16 20:59N 34°01' E 134°51'715.3
2018-Feb-16 20:30N 33°55' E 134°56'815.4
2018-Feb-16 19:59N 33°49' E 135°02'10811.8
2018-Feb-16 10:54N 34°31' E 137°02'1414.1
2018-Feb-16 09:56N 34°40' E 136°50'715.5
2018-Feb-16 09:30N 34°46' E 136°46'714.9
2018-Feb-16 09:00N 34°54' E 136°46'714.7
2018-Feb-16 08:30N 35°00' E 136°50'4 8.6
2018-Feb-16 08:00N 35°04' E 136°53'0 0.0
2018-Feb-16 07:30N 35°04' E 136°53'0 0.0
2018-Feb-16 07:00N 35°04' E 136°53'0 0.0
2018-Feb-16 06:30N 35°04' E 136°53'0 0.0
2018-Feb-16 06:00N 35°04' E 136°53'0 0.0
2018-Feb-16 05:30N 35°04' E 136°53'0 0.0
2018-Feb-16 04:54N 35°04' E 136°53'0 0.0
2018-Feb-16 04:27N 35°04' E 136°53'0 0.0
2018-Feb-16 04:00N 35°04' E 136°53'0 0.0
2018-Feb-16 03:30N 35°04' E 136°53'0 0.0
2018-Feb-16 03:00N 35°04' E 136°53'0 0.0
2018-Feb-16 02:30N 35°04' E 136°53'0 0.0
2018-Feb-16 02:00N 35°04' E 136°53'0 0.0
2018-Feb-16 01:30N 35°04' E 136°53'0 0.0
2018-Feb-16 01:00N 35°04' E 136°53'0 0.0
2018-Feb-16 00:30N 35°04' E 136°53'0 0.0
2018-Feb-15 23:57N 35°04' E 136°53'0 0.0
2018-Feb-15 23:30N 35°04' E 136°53'0 0.0
2018-Feb-15 23:00N 35°04' E 136°53'0 0.0
2018-Feb-15 22:24N 35°04' E 136°53'0 0.0
2018-Feb-15 22:00N 35°04' E 136°53'0 0.0
2018-Feb-15 21:30N 35°04' E 136°53'0 0.0
2018-Feb-15 21:00N 35°04' E 136°53'0 0.0
2018-Feb-15 20:30N 35°04' E 136°53'0 0.0
2018-Feb-15 20:00N 35°04' E 136°53'0 0.0
2018-Feb-15 19:30N 35°04' E 136°53'0 0.0
2018-Feb-15 19:00N 35°04' E 136°53'0 0.0
2018-Feb-15 18:30N 35°04' E 136°53'0 0.0
2018-Feb-15 18:00N 35°04' E 136°53'0 0.0
2018-Feb-15 17:30N 35°04' E 136°53'0 0.0
2018-Feb-15 16:57N 35°04' E 136°53'0 0.0
2018-Feb-15 16:30N 35°04' E 136°53'0 0.0
2018-Feb-15 16:00N 35°04' E 136°53'0 0.0
2018-Feb-15 15:30N 35°04' E 136°53'0 0.0
2018-Feb-15 15:00N 35°04' E 136°53'0 0.0
2018-Feb-15 14:30N 35°04' E 136°53'0 0.0
2018-Feb-15 13:57N 35°04' E 136°53'0 0.0
2018-Feb-15 13:30N 35°04' E 136°53'0 0.0
2018-Feb-15 13:00N 35°04' E 136°53'0 0.0
2018-Feb-15 12:27N 35°04' E 136°53'0 0.0
2018-Feb-15 12:00N 35°04' E 136°53'0 0.0
2018-Feb-15 11:27N 35°04' E 136°53'0 0.0
2018-Feb-15 10:57N 35°04' E 136°53'0 0.0
2018-Feb-15 10:27N 35°04' E 136°53'0 0.0
2018-Feb-15 10:00N 35°04' E 136°53'0 0.0
2018-Feb-15 09:30N 35°04' E 136°53'0 0.0
2018-Feb-15 08:57N 35°04' E 136°53'0 0.0
2018-Feb-15 08:24N 35°04' E 136°53'0 0.3
2018-Feb-15 07:59N 35°04' E 136°53'4 7.8
2018-Feb-15 07:30N 35°01' E 136°50'713.3
2018-Feb-15 07:00N 34°55' E 136°46'713.7
2018-Feb-15 06:30N 34°48' E 136°48'713.8
2018-Feb-15 05:59N 34°42' E 136°52'106 9.5
2018-Feb-14 18:50N 33°49' E 135°01'413.6
2018-Feb-14 18:30N 33°51' E 134°57'1313.7
2018-Feb-14 17:33N 34°03' E 134°49'114.1
2018-Feb-14 17:30N 34°04' E 134°49'1315.0
2018-Feb-14 16:40N 34°13' E 134°39'414.6
2018-Feb-14 16:22N 34°17' E 134°36'614.3
2018-Feb-14 15:55N 34°19' E 134°29'7 0.4
2018-Feb-13 22:18N 34°23' E 134°21'515.7
2018-Feb-13 22:00N 34°21' E 134°27'815.7
2018-Feb-13 21:30N 34°17' E 134°35'1116.3
2018-Feb-13 20:50N 34°09' E 134°44'515.5
2018-Feb-13 20:30N 34°05' E 134°47'1015.5
2018-Feb-13 19:53N 33°57' E 134°55'715.4
2018-Feb-13 19:24N 33°51' E 134°60'  
Track history (hours):
 
Tides and Currents Weather Stations Pressure Air Temp Water Temp Dewpoint Dewpoint Depression Visibility Wind Speed Wind Dir Waves Ship Positions

Hekiryumaru

Last reported at 2018-Feb-23 02:28 UTC. Time now 2018-Feb-23 02:39 UTC.
Position N 35°03' E 136°53'.

Length 115 m; draft 5 m.

Type: Cargo ship. MMSI: 431200271.

Date/timePositionNaut miles runAvg speedWind from/ knotsBaromVisibWave heightAir tempDewpointWater temp
2018-Feb-23 02:28N 35°03' E 136°53'0 0.0
2018-Feb-23 01:58N 35°03' E 136°53'0 0.0
2018-Feb-23 01:25N 35°03' E 136°53'2 5.5
2018-Feb-23 01:00N 35°02' E 136°51'612.2
2018-Feb-23 00:30N 34°57' E 136°46'0 0.9
2018-Feb-23 00:00N 34°57' E 136°45'0 0.0
2018-Feb-22 23:30N 34°57' E 136°45'0 0.0
2018-Feb-22 23:00N 34°57' E 136°45'0 0.0
2018-Feb-22 22:30N 34°57' E 136°45'0 0.0
2018-Feb-22 22:00N 34°57' E 136°45'0 0.1
2018-Feb-22 21:27N 34°57' E 136°45'511.0
2018-Feb-22 21:00N 34°52' E 136°47'713.7
2018-Feb-22 20:30N 34°45' E 136°49'106 8.9
2018-Feb-22 08:35N 33°53' E 134°58'114.6
2018-Feb-22 08:30N 33°53' E 134°57'1214.1
2018-Feb-22 07:41N 34°03' E 134°49'1615.0
2018-Feb-22 06:37N 34°16' E 134°37'413.8
2018-Feb-22 06:18N 34°18' E 134°33'514.1
2018-Feb-22 05:59N 34°19' E 134°27'8 0.3
2018-Feb-21 02:30N 34°23' E 134°19'815.2
2018-Feb-21 02:00N 34°20' E 134°27'1314.8
2018-Feb-21 01:09N 34°13' E 134°40'515.8
2018-Feb-21 00:49N 34°09' E 134°44'514.9
2018-Feb-21 00:30N 34°05' E 134°48'1015.0
2018-Feb-20 23:50N 33°57' E 134°54'515.2
2018-Feb-20 23:30N 33°53' E 134°58'104 9.6
2018-Feb-20 12:39N 34°40' E 136°50'215.3
2018-Feb-20 12:30N 34°42' E 136°48'714.9
2018-Feb-20 12:00N 34°49' E 136°46'714.8
2018-Feb-20 11:30N 34°57' E 136°47'713.8
2018-Feb-20 11:00N 35°02' E 136°52'1 2.7
2018-Feb-20 10:30N 35°03' E 136°53'0 0.0
2018-Feb-20 09:59N 35°03' E 136°53'0 0.0
2018-Feb-20 09:29N 35°03' E 136°53'0 0.0
2018-Feb-20 08:56N 35°03' E 136°53'0 0.0
2018-Feb-20 08:29N 35°03' E 136°53'0 0.0
2018-Feb-20 07:59N 35°03' E 136°53'0 0.0
2018-Feb-20 07:29N 35°03' E 136°53'0 0.0
2018-Feb-20 06:59N 35°03' E 136°53'0 0.0
2018-Feb-20 06:29N 35°03' E 136°53'0 0.0
2018-Feb-20 05:59N 35°03' E 136°53'0 0.0
2018-Feb-20 05:29N 35°03' E 136°53'0 0.0
2018-Feb-20 04:59N 35°03' E 136°53'0 0.0
2018-Feb-20 04:29N 35°03' E 136°53'0 0.9
2018-Feb-20 04:00N 35°03' E 136°53'510.3
2018-Feb-20 03:30N 34°59' E 136°49'612.5
2018-Feb-20 03:00N 34°53' E 136°47'713.0
2018-Feb-20 02:30N 34°46' E 136°48'10212.5
2018-Feb-19 18:17N 34°33' E 138°52'413.0
2018-Feb-19 17:57N 34°33' E 138°57'913.1
2018-Feb-19 17:15N 34°39' E 139°05'313.1
2018-Feb-19 17:00N 34°41' E 139°08'3113.6
2018-Feb-19 14:44N 35°02' E 139°36'314.1
2018-Feb-19 14:30N 35°04' E 139°38'714.2
2018-Feb-19 14:00N 35°10' E 139°44'612.7
2018-Feb-19 13:30N 35°16' E 139°46'612.7
2018-Feb-19 13:00N 35°21' E 139°42'612.4
2018-Feb-19 12:30N 35°27' E 139°43'0 1.0
2018-Feb-19 11:59N 35°28' E 139°43'0 0.0
2018-Feb-19 11:29N 35°28' E 139°43'0 0.0
2018-Feb-19 10:56N 35°28' E 139°43'0 0.0
2018-Feb-19 10:29N 35°28' E 139°43'0 0.1
2018-Feb-19 09:59N 35°28' E 139°43'0 0.1
2018-Feb-19 09:26N 35°28' E 139°43'0 0.0
2018-Feb-19 08:59N 35°28' E 139°43'0 0.0
2018-Feb-19 08:17N 35°28' E 139°43'0 0.0
2018-Feb-19 07:56N 35°28' E 139°43'0 0.0
2018-Feb-19 07:29N 35°28' E 139°43'0 0.0
2018-Feb-19 06:59N 35°28' E 139°43'0 0.0
2018-Feb-19 06:29N 35°28' E 139°43'0 0.0
2018-Feb-19 05:59N 35°28' E 139°43'0 0.1
2018-Feb-19 05:29N 35°28' E 139°43'3 6.7
2018-Feb-19 05:00N 35°28' E 139°47'1112.5
2018-Feb-19 04:09N 35°35' E 139°56'1 7.4
2018-Feb-19 03:57N 35°36' E 139°57'0 0.1
2018-Feb-19 03:20N 35°36' E 139°57'1 0.2
2018-Feb-18 21:06N 35°37' E 139°58'1 0.3
2018-Feb-18 17:24N 35°36' E 139°57'0 0.0
2018-Feb-18 17:00N 35°36' E 139°57'0 0.1
2018-Feb-18 16:29N 35°36' E 139°57'5 9.8
2018-Feb-18 16:00N 35°32' E 139°54'713.9
2018-Feb-18 15:30N 35°27' E 139°49'612.5
2018-Feb-18 15:00N 35°22' E 139°45'611.5
2018-Feb-18 14:31N 35°16' E 139°47'612.3
2018-Feb-18 14:00N 35°10' E 139°46'1114.1
2018-Feb-18 13:15N 35°01' E 139°39'4014.8
2018-Feb-18 10:34N 34°36' E 139°01'414.1
2018-Feb-18 10:15N 34°33' E 138°57'19912.8
2018-Feb-17 18:37N 33°50' E 135°02'615.3
2018-Feb-17 18:14N 33°55' E 134°57'314.9
2018-Feb-17 18:00N 33°58' E 134°55'815.3
2018-Feb-17 17:30N 34°04' E 134°49'1716.1
2018-Feb-17 16:26N 34°17' E 134°36'614.9
2018-Feb-17 16:00N 34°19' E 134°28'7 0.4
2018-Feb-16 23:16N 34°23' E 134°21'414.4
2018-Feb-16 22:59N 34°21' E 134°25'714.5
2018-Feb-16 22:30N 34°18' E 134°33'815.0
2018-Feb-16 21:59N 34°13' E 134°40'715.1
2018-Feb-16 21:29N 34°07' E 134°46'814.9
2018-Feb-16 20:59N 34°01' E 134°51'715.3
2018-Feb-16 20:30N 33°55' E 134°56'815.4
2018-Feb-16 19:59N 33°49' E 135°02'10811.8
2018-Feb-16 10:54N 34°31' E 137°02'1414.1
2018-Feb-16 09:56N 34°40' E 136°50'715.5
2018-Feb-16 09:30N 34°46' E 136°46'714.9
2018-Feb-16 09:00N 34°54' E 136°46'714.7
2018-Feb-16 08:30N 35°00' E 136°50'4 8.6
2018-Feb-16 08:00N 35°04' E 136°53'0 0.0
2018-Feb-16 07:30N 35°04' E 136°53'0 0.0
2018-Feb-16 07:00N 35°04' E 136°53'0 0.0
2018-Feb-16 06:30N 35°04' E 136°53'0 0.0
2018-Feb-16 06:00N 35°04' E 136°53'0 0.0
2018-Feb-16 05:30N 35°04' E 136°53'0 0.0
2018-Feb-16 04:54N 35°04' E 136°53'0 0.0
2018-Feb-16 04:27N 35°04' E 136°53'0 0.0
2018-Feb-16 04:00N 35°04' E 136°53'0 0.0
2018-Feb-16 03:30N 35°04' E 136°53'0 0.0
2018-Feb-16 03:00N 35°04' E 136°53'0 0.0
2018-Feb-16 02:30N 35°04' E 136°53'0 0.0
2018-Feb-16 02:00N 35°04' E 136°53'0 0.0
2018-Feb-16 01:30N 35°04' E 136°53'0 0.0
2018-Feb-16 01:00N 35°04' E 136°53'0 0.0
2018-Feb-16 00:30N 35°04' E 136°53'0 0.0
2018-Feb-15 23:57N 35°04' E 136°53'0 0.0
2018-Feb-15 23:30N 35°04' E 136°53'0 0.0
2018-Feb-15 23:00N 35°04' E 136°53'0 0.0
2018-Feb-15 22:24N 35°04' E 136°53'0 0.0
2018-Feb-15 22:00N 35°04' E 136°53'0 0.0
2018-Feb-15 21:30N 35°04' E 136°53'0 0.0
2018-Feb-15 21:00N 35°04' E 136°53'0 0.0
2018-Feb-15 20:30N 35°04' E 136°53'0 0.0
2018-Feb-15 20:00N 35°04' E 136°53'0 0.0
2018-Feb-15 19:30N 35°04' E 136°53'0 0.0
2018-Feb-15 19:00N 35°04' E 136°53'0 0.0
2018-Feb-15 18:30N 35°04' E 136°53'0 0.0
2018-Feb-15 18:00N 35°04' E 136°53'0 0.0
2018-Feb-15 17:30N 35°04' E 136°53'0 0.0
2018-Feb-15 16:57N 35°04' E 136°53'0 0.0
2018-Feb-15 16:30N 35°04' E 136°53'0 0.0
2018-Feb-15 16:00N 35°04' E 136°53'0 0.0
2018-Feb-15 15:30N 35°04' E 136°53'0 0.0
2018-Feb-15 15:00N 35°04' E 136°53'0 0.0
2018-Feb-15 14:30N 35°04' E 136°53'0 0.0
2018-Feb-15 13:57N 35°04' E 136°53'0 0.0
2018-Feb-15 13:30N 35°04' E 136°53'0 0.0
2018-Feb-15 13:00N 35°04' E 136°53'0 0.0
2018-Feb-15 12:27N 35°04' E 136°53'0 0.0
2018-Feb-15 12:00N 35°04' E 136°53'0 0.0
2018-Feb-15 11:27N 35°04' E 136°53'0 0.0
2018-Feb-15 10:57N 35°04' E 136°53'0 0.0
2018-Feb-15 10:27N 35°04' E 136°53'0 0.0
2018-Feb-15 10:00N 35°04' E 136°53'0 0.0
2018-Feb-15 09:30N 35°04' E 136°53'0 0.0
2018-Feb-15 08:57N 35°04' E 136°53'0 0.0
2018-Feb-15 08:24N 35°04' E 136°53'0 0.3
2018-Feb-15 07:59N 35°04' E 136°53'4 7.8
2018-Feb-15 07:30N 35°01' E 136°50'713.3
2018-Feb-15 07:00N 34°55' E 136°46'713.7
2018-Feb-15 06:30N 34°48' E 136°48'713.8
2018-Feb-15 05:59N 34°42' E 136°52'106 9.5
2018-Feb-14 18:50N 33°49' E 135°01'413.6
2018-Feb-14 18:30N 33°51' E 134°57'1313.7
2018-Feb-14 17:33N 34°03' E 134°49'114.1
2018-Feb-14 17:30N 34°04' E 134°49'1315.0
2018-Feb-14 16:40N 34°13' E 134°39'414.6
2018-Feb-14 16:22N 34°17' E 134°36'614.3
2018-Feb-14 15:55N 34°19' E 134°29'7 0.4
2018-Feb-13 22:18N 34°23' E 134°21'515.7
2018-Feb-13 22:00N 34°21' E 134°27'815.7
2018-Feb-13 21:30N 34°17' E 134°35'1116.3
2018-Feb-13 20:50N 34°09' E 134°44'515.5
2018-Feb-13 20:30N 34°05' E 134°47'1015.5
2018-Feb-13 19:53N 33°57' E 134°55'715.4
2018-Feb-13 19:24N 33°51' E 134°60'  

Dump ship's entire track history